Airfield :
LOGIN :

Register | Disclaimer

   EN    FR    IT 

 










Legend :    VFR   Marginal VFR   IFR   Intensive IFR   Very Intensive IFR
Visi :
Ceiling :
>= 8 km
>= 3000ft
5 to 8 km
1000 to 3000 ft
1500m to 5 km
500 to 1000 ft
800 to 1500m
200 to 500 ft
< 800m
< 200 ft
Symbols :   Thunderstorms  Fog  Heavy snow  Heavy precipitations  Wind > 20 kt
SIGMETs :     Misc.  Thunderstorms  Icing  Turbulence  Mountain Waves  Volcanic Ashes






- Airport Elevation : 1197 ft
- IATA code : SPM


ETAD - Spangdahlem Ab

CURRENT METAR :
  • 021940Z AUTO 00000KT 9999 BKN110 15/12 A2999 RMK AO2 RAB1855E05RAB17E40 SLP142 $

EXPIRED METARs :
  • 021917Z AUTO 00000KT 9999 -RA SCT100 BKN120 15/12 A2998 RMK AO2 RAB1855E05RAB17 SLP138 $
  • 021905Z AUTO 00000KT 9999 BKN100 15/13 A2998 RMK AO2 RAB1855E05 SLP140 $
  • 021856Z AUTO 00000KT 9999 BKN100 16/12 A2998 RMK AO2 SLP138 T01560120 $
  • 021756Z AUTO 23004KT 9999 CLR 17/11 A2997 RMK AO2 SLP135 60000 T01680113 10201 20146 50005 $
  • 021726Z AUTO 24007KT 9999 FEW024 FEW110 18/12 A2997 RMK AO2 SLP135 $
  • 021711Z AUTO 22008KT 9999 BKN023 BKN110 18/14 A2997 RMK AO2 CIG 023V110 BKN023 V SCT SLP135 $
  • 021656Z AUTO 23004KT 9999 SCT023 SCT100 18/14 A2997 RMK AO2 RAE18RAB23E24DZB24E32RAB32E33 SLP135 P0000 T01750144 $

Expired Forecast.



MET'MAP, your aeronautical weather chart ! - Copyright ORBIFLY December 2007 - Disclaimer

ORBIFLY MET'MAP TEAM :

Programming & Development : Alexandra Zaïnal
Concept & original design : Baudouin d'Aumeries
Assistance for programming : Marc-Olivier Méhu
Technical & hardware support : Manuel Goepfert

Contact : metmap@orbifly.com




SOURCES & CREDITS :

   NOAA